sensor_id;sensor_type;location;lat;lon;timestamp;P1;durP1;ratioP1;P2;durP2;ratioP2
5841;SDS011;2947;52.276;9.946;2023-05-08T00:00:23;11.27;;;8.40;;
5841;SDS011;2947;52.276;9.946;2023-05-08T00:02:49;14.00;;;8.17;;
5841;SDS011;2947;52.276;9.946;2023-05-08T00:05:15;13.70;;;8.80;;
5841;SDS011;2947;52.276;9.946;2023-05-08T00:07:41;12.70;;;8.40;;
5841;SDS011;2947;52.276;9.946;2023-05-08T00:10:07;11.50;;;9.07;;
5841;SDS011;2947;52.276;9.946;2023-05-08T00:12:34;14.00;;;8.77;;
5841;SDS011;2947;52.276;9.946;2023-05-08T00:15:00;11.97;;;8.20;;
5841;SDS011;2947;52.276;9.946;2023-05-08T00:17:26;13.23;;;9.63;;
5841;SDS011;2947;52.276;9.946;2023-05-08T00:19:53;12.70;;;9.07;;
5841;SDS011;2947;52.276;9.946;2023-05-08T00:22:19;15.37;;;9.60;;
5841;SDS011;2947;52.276;9.946;2023-05-08T00:24:44;13.27;;;8.53;;
5841;SDS011;2947;52.276;9.946;2023-05-08T00:27:10;13.40;;;9.47;;
5841;SDS011;2947;52.276;9.946;2023-05-08T00:29:36;14.60;;;10.07;;
5841;SDS011;2947;52.276;9.946;2023-05-08T00:32:04;14.13;;;8.87;;
5841;SDS011;2947;52.276;9.946;2023-05-08T00:34:31;14.07;;;9.40;;
5841;SDS011;2947;52.276;9.946;2023-05-08T00:36:56;15.20;;;9.90;;
5841;SDS011;2947;52.276;9.946;2023-05-08T00:39:22;12.27;;;9.53;;
5841;SDS011;2947;52.276;9.946;2023-05-08T00:41:48;16.70;;;8.70;;
5841;SDS011;2947;52.276;9.946;2023-05-08T00:44:14;12.73;;;9.23;;
5841;SDS011;2947;52.276;9.946;2023-05-08T00:46:40;13.50;;;8.90;;
5841;SDS011;2947;52.276;9.946;2023-05-08T00:49:06;14.37;;;10.47;;
5841;SDS011;2947;52.276;9.946;2023-05-08T00:51:37;14.40;;;10.47;;
5841;SDS011;2947;52.276;9.946;2023-05-08T00:54:07;12.00;;;8.70;;
5841;SDS011;2947;52.276;9.946;2023-05-08T00:56:33;12.00;;;8.93;;
5841;SDS011;2947;52.276;9.946;2023-05-08T00:59:02;13.10;;;8.80;;
5841;SDS011;2947;52.276;9.946;2023-05-08T01:01:32;10.20;;;8.10;;
5841;SDS011;2947;52.276;9.946;2023-05-08T01:04:01;10.77;;;7.83;;
5841;SDS011;2947;52.276;9.946;2023-05-08T01:06:28;10.17;;;7.60;;
5841;SDS011;2947;52.276;9.946;2023-05-08T01:08:54;10.70;;;8.37;;
5841;SDS011;2947;52.276;9.946;2023-05-08T01:16:42;18.87;;;9.17;;
5841;SDS011;2947;52.276;9.946;2023-05-08T01:19:49;13.47;;;9.03;;
5841;SDS011;2947;52.276;9.946;2023-05-08T01:28:12;13.17;;;9.23;;
5841;SDS011;2947;52.276;9.946;2023-05-08T01:34:18;12.87;;;9.80;;
5841;SDS011;2947;52.276;9.946;2023-05-08T01:37:04;24.30;;;10.40;;
5841;SDS011;2947;52.276;9.946;2023-05-08T01:42:17;16.40;;;10.60;;
5841;SDS011;2947;52.276;9.946;2023-05-08T01:44:52;13.43;;;10.23;;
5841;SDS011;2947;52.276;9.946;2023-05-08T01:47:24;13.80;;;9.77;;
5841;SDS011;2947;52.276;9.946;2023-05-08T01:50:29;13.90;;;9.83;;
5841;SDS011;2947;52.276;9.946;2023-05-08T01:52:57;15.17;;;9.50;;
5841;SDS011;2947;52.276;9.946;2023-05-08T01:55:33;14.33;;;8.87;;
5841;SDS011;2947;52.276;9.946;2023-05-08T01:58:00;12.33;;;9.37;;
5841;SDS011;2947;52.276;9.946;2023-05-08T02:00:32;17.67;;;9.13;;
5841;SDS011;2947;52.276;9.946;2023-05-08T02:02:58;13.33;;;9.53;;
5841;SDS011;2947;52.276;9.946;2023-05-08T02:05:25;17.93;;;9.03;;
5841;SDS011;2947;52.276;9.946;2023-05-08T02:07:53;14.23;;;9.67;;
5841;SDS011;2947;52.276;9.946;2023-05-08T02:10:20;14.50;;;8.93;;
5841;SDS011;2947;52.276;9.946;2023-05-08T02:12:47;12.87;;;8.57;;
5841;SDS011;2947;52.276;9.946;2023-05-08T02:15:14;12.80;;;8.47;;
5841;SDS011;2947;52.276;9.946;2023-05-08T02:17:41;18.97;;;10.33;;
5841;SDS011;2947;52.276;9.946;2023-05-08T02:20:10;13.10;;;9.30;;
5841;SDS011;2947;52.276;9.946;2023-05-08T02:22:39;12.73;;;9.07;;
5841;SDS011;2947;52.276;9.946;2023-05-08T02:25:10;14.23;;;9.40;;
5841;SDS011;2947;52.276;9.946;2023-05-08T02:27:38;14.20;;;9.73;;
5841;SDS011;2947;52.276;9.946;2023-05-08T02:30:15;22.80;;;9.60;;
5841;SDS011;2947;52.276;9.946;2023-05-08T02:32:42;13.90;;;9.10;;
5841;SDS011;2947;52.276;9.946;2023-05-08T02:35:11;15.20;;;9.70;;
5841;SDS011;2947;52.276;9.946;2023-05-08T02:37:44;13.40;;;9.80;;
5841;SDS011;2947;52.276;9.946;2023-05-08T02:40:13;12.27;;;8.10;;
5841;SDS011;2947;52.276;9.946;2023-05-08T02:42:41;12.90;;;9.30;;
5841;SDS011;2947;52.276;9.946;2023-05-08T02:45:08;13.57;;;9.63;;
5841;SDS011;2947;52.276;9.946;2023-05-08T02:47:45;15.07;;;9.80;;
5841;SDS011;2947;52.276;9.946;2023-05-08T02:53:10;12.10;;;8.50;;
5841;SDS011;2947;52.276;9.946;2023-05-08T02:55:47;16.23;;;9.70;;
5841;SDS011;2947;52.276;9.946;2023-05-08T03:01:33;13.50;;;9.20;;
5841;SDS011;2947;52.276;9.946;2023-05-08T03:04:10;12.07;;;9.27;;
5841;SDS011;2947;52.276;9.946;2023-05-08T03:07:09;13.87;;;9.43;;
5841;SDS011;2947;52.276;9.946;2023-05-08T03:09:40;12.53;;;8.67;;
5841;SDS011;2947;52.276;9.946;2023-05-08T03:12:13;14.27;;;9.23;;
5841;SDS011;2947;52.276;9.946;2023-05-08T03:14:51;13.60;;;9.67;;
5841;SDS011;2947;52.276;9.946;2023-05-08T03:17:24;14.07;;;8.90;;
5841;SDS011;2947;52.276;9.946;2023-05-08T03:19:53;14.50;;;8.70;;
5841;SDS011;2947;52.276;9.946;2023-05-08T03:22:24;15.20;;;9.70;;
5841;SDS011;2947;52.276;9.946;2023-05-08T03:24:52;14.93;;;9.10;;
5841;SDS011;2947;52.276;9.946;2023-05-08T03:27:20;13.93;;;9.50;;
5841;SDS011;2947;52.276;9.946;2023-05-08T03:29:47;13.53;;;9.50;;
5841;SDS011;2947;52.276;9.946;2023-05-08T03:32:16;18.20;;;10.10;;
5841;SDS011;2947;52.276;9.946;2023-05-08T03:34:43;14.17;;;9.83;;
5841;SDS011;2947;52.276;9.946;2023-05-08T03:37:09;14.53;;;9.30;;
5841;SDS011;2947;52.276;9.946;2023-05-08T03:39:35;12.50;;;9.00;;
5841;SDS011;2947;52.276;9.946;2023-05-08T03:42:01;13.50;;;9.70;;
5841;SDS011;2947;52.276;9.946;2023-05-08T03:44:27;15.60;;;9.70;;
5841;SDS011;2947;52.276;9.946;2023-05-08T03:46:55;14.10;;;9.60;;
5841;SDS011;2947;52.276;9.946;2023-05-08T03:49:22;15.10;;;10.67;;
5841;SDS011;2947;52.276;9.946;2023-05-08T03:51:50;14.83;;;9.83;;
5841;SDS011;2947;52.276;9.946;2023-05-08T03:54:20;13.63;;;10.73;;
5841;SDS011;2947;52.276;9.946;2023-05-08T03:56:49;15.53;;;9.87;;
5841;SDS011;2947;52.276;9.946;2023-05-08T03:59:20;17.37;;;10.00;;
5841;SDS011;2947;52.276;9.946;2023-05-08T04:01:57;17.03;;;10.67;;
5841;SDS011;2947;52.276;9.946;2023-05-08T04:04:48;15.70;;;10.47;;
5841;SDS011;2947;52.276;9.946;2023-05-08T04:10:19;20.70;;;10.40;;
5841;SDS011;2947;52.276;9.946;2023-05-08T04:12:58;15.73;;;10.23;;
5841;SDS011;2947;52.276;9.946;2023-05-08T04:15:38;22.13;;;10.83;;
5841;SDS011;2947;52.276;9.946;2023-05-08T04:18:30;23.03;;;10.70;;
5841;SDS011;2947;52.276;9.946;2023-05-08T04:21:01;14.03;;;9.90;;
5841;SDS011;2947;52.276;9.946;2023-05-08T04:23:32;15.77;;;10.70;;
5841;SDS011;2947;52.276;9.946;2023-05-08T04:26:00;14.50;;;9.57;;
5841;SDS011;2947;52.276;9.946;2023-05-08T04:28:27;15.47;;;11.10;;
5841;SDS011;2947;52.276;9.946;2023-05-08T04:30:54;16.07;;;9.43;;
5841;SDS011;2947;52.276;9.946;2023-05-08T04:33:21;14.40;;;10.00;;
5841;SDS011;2947;52.276;9.946;2023-05-08T04:35:47;15.93;;;9.90;;
5841;SDS011;2947;52.276;9.946;2023-05-08T04:38:14;14.90;;;10.37;;
5841;SDS011;2947;52.276;9.946;2023-05-08T04:40:39;16.17;;;10.47;;
5841;SDS011;2947;52.276;9.946;2023-05-08T04:43:05;14.27;;;10.13;;
5841;SDS011;2947;52.276;9.946;2023-05-08T04:45:31;16.90;;;10.77;;
5841;SDS011;2947;52.276;9.946;2023-05-08T04:47:57;14.93;;;10.43;;
5841;SDS011;2947;52.276;9.946;2023-05-08T04:50:22;15.13;;;9.90;;
5841;SDS011;2947;52.276;9.946;2023-05-08T04:52:48;13.60;;;9.77;;
5841;SDS011;2947;52.276;9.946;2023-05-08T04:55:14;14.63;;;10.17;;
5841;SDS011;2947;52.276;9.946;2023-05-08T04:57:39;13.87;;;9.60;;
5841;SDS011;2947;52.276;9.946;2023-05-08T05:00:05;15.23;;;9.80;;
5841;SDS011;2947;52.276;9.946;2023-05-08T05:02:32;13.83;;;9.07;;
5841;SDS011;2947;52.276;9.946;2023-05-08T05:04:57;15.10;;;9.60;;
5841;SDS011;2947;52.276;9.946;2023-05-08T05:07:25;14.07;;;9.87;;
5841;SDS011;2947;52.276;9.946;2023-05-08T05:09:50;17.33;;;10.40;;
5841;SDS011;2947;52.276;9.946;2023-05-08T05:12:16;14.47;;;10.40;;
5841;SDS011;2947;52.276;9.946;2023-05-08T05:14:42;17.30;;;10.80;;
5841;SDS011;2947;52.276;9.946;2023-05-08T05:17:07;14.97;;;10.47;;
5841;SDS011;2947;52.276;9.946;2023-05-08T05:19:33;18.60;;;9.80;;
5841;SDS011;2947;52.276;9.946;2023-05-08T05:21:59;16.23;;;10.30;;
5841;SDS011;2947;52.276;9.946;2023-05-08T05:24:24;15.77;;;10.13;;
5841;SDS011;2947;52.276;9.946;2023-05-08T05:26:50;13.00;;;9.80;;
5841;SDS011;2947;52.276;9.946;2023-05-08T05:29:16;13.80;;;10.47;;
5841;SDS011;2947;52.276;9.946;2023-05-08T05:31:41;14.73;;;10.13;;
5841;SDS011;2947;52.276;9.946;2023-05-08T05:34:07;14.83;;;9.10;;
5841;SDS011;2947;52.276;9.946;2023-05-08T05:36:33;15.03;;;10.97;;
5841;SDS011;2947;52.276;9.946;2023-05-08T05:38:58;17.20;;;9.87;;
5841;SDS011;2947;52.276;9.946;2023-05-08T05:41:24;13.90;;;10.30;;
5841;SDS011;2947;52.276;9.946;2023-05-08T05:43:50;13.77;;;10.40;;
5841;SDS011;2947;52.276;9.946;2023-05-08T05:46:15;16.10;;;9.20;;
5841;SDS011;2947;52.276;9.946;2023-05-08T05:48:42;13.43;;;9.77;;
5841;SDS011;2947;52.276;9.946;2023-05-08T05:51:07;16.33;;;9.40;;
5841;SDS011;2947;52.276;9.946;2023-05-08T05:53:33;15.50;;;9.00;;
5841;SDS011;2947;52.276;9.946;2023-05-08T05:55:59;13.37;;;9.63;;
5841;SDS011;2947;52.276;9.946;2023-05-08T05:58:24;13.43;;;9.20;;
5841;SDS011;2947;52.276;9.946;2023-05-08T06:00:52;14.60;;;9.20;;
5841;SDS011;2947;52.276;9.946;2023-05-08T06:03:17;16.20;;;8.83;;
5841;SDS011;2947;52.276;9.946;2023-05-08T06:05:45;14.93;;;9.73;;
5841;SDS011;2947;52.276;9.946;2023-05-08T06:08:11;13.40;;;9.37;;
5841;SDS011;2947;52.276;9.946;2023-05-08T06:10:37;20.10;;;10.97;;
5841;SDS011;2947;52.276;9.946;2023-05-08T06:13:03;13.90;;;9.70;;
5841;SDS011;2947;52.276;9.946;2023-05-08T06:15:28;13.90;;;9.40;;
5841;SDS011;2947;52.276;9.946;2023-05-08T06:17:54;13.27;;;10.10;;
5841;SDS011;2947;52.276;9.946;2023-05-08T06:20:20;14.57;;;9.50;;
5841;SDS011;2947;52.276;9.946;2023-05-08T06:22:46;12.40;;;9.17;;
5841;SDS011;2947;52.276;9.946;2023-05-08T06:25:12;13.50;;;9.50;;
5841;SDS011;2947;52.276;9.946;2023-05-08T06:27:38;13.53;;;9.47;;
5841;SDS011;2947;52.276;9.946;2023-05-08T06:30:03;15.80;;;9.87;;
5841;SDS011;2947;52.276;9.946;2023-05-08T06:32:32;13.53;;;10.10;;
5841;SDS011;2947;52.276;9.946;2023-05-08T06:34:58;14.30;;;10.10;;
5841;SDS011;2947;52.276;9.946;2023-05-08T06:37:24;12.93;;;9.60;;
5841;SDS011;2947;52.276;9.946;2023-05-08T06:39:50;12.80;;;9.90;;
5841;SDS011;2947;52.276;9.946;2023-05-08T06:42:15;12.47;;;9.40;;
5841;SDS011;2947;52.276;9.946;2023-05-08T06:44:41;16.60;;;11.20;;
5841;SDS011;2947;52.276;9.946;2023-05-08T06:47:07;14.30;;;10.33;;
5841;SDS011;2947;52.276;9.946;2023-05-08T06:49:34;15.87;;;10.27;;
5841;SDS011;2947;52.276;9.946;2023-05-08T06:52:01;14.40;;;9.67;;
5841;SDS011;2947;52.276;9.946;2023-05-08T06:54:26;14.10;;;9.53;;
5841;SDS011;2947;52.276;9.946;2023-05-08T06:56:52;11.47;;;8.83;;
5841;SDS011;2947;52.276;9.946;2023-05-08T06:59:18;13.70;;;9.57;;
5841;SDS011;2947;52.276;9.946;2023-05-08T07:01:48;12.70;;;9.13;;
5841;SDS011;2947;52.276;9.946;2023-05-08T07:04:14;12.03;;;8.97;;
5841;SDS011;2947;52.276;9.946;2023-05-08T07:06:40;13.47;;;9.67;;
5841;SDS011;2947;52.276;9.946;2023-05-08T07:09:05;12.67;;;8.80;;
5841;SDS011;2947;52.276;9.946;2023-05-08T07:11:31;14.17;;;9.80;;
5841;SDS011;2947;52.276;9.946;2023-05-08T07:13:57;15.03;;;9.43;;
5841;SDS011;2947;52.276;9.946;2023-05-08T07:16:22;12.20;;;8.63;;
5841;SDS011;2947;52.276;9.946;2023-05-08T07:18:48;14.30;;;10.27;;
5841;SDS011;2947;52.276;9.946;2023-05-08T07:21:14;14.03;;;10.33;;
5841;SDS011;2947;52.276;9.946;2023-05-08T07:23:42;14.60;;;8.80;;
5841;SDS011;2947;52.276;9.946;2023-05-08T07:26:08;14.53;;;9.90;;
5841;SDS011;2947;52.276;9.946;2023-05-08T07:28:33;15.93;;;10.13;;
5841;SDS011;2947;52.276;9.946;2023-05-08T07:30:59;14.00;;;10.27;;
5841;SDS011;2947;52.276;9.946;2023-05-08T07:33:30;17.50;;;11.03;;
5841;SDS011;2947;52.276;9.946;2023-05-08T07:35:58;13.07;;;8.97;;
5841;SDS011;2947;52.276;9.946;2023-05-08T07:38:24;11.67;;;9.03;;
5841;SDS011;2947;52.276;9.946;2023-05-08T07:40:50;17.50;;;9.70;;
5841;SDS011;2947;52.276;9.946;2023-05-08T07:43:17;11.90;;;9.10;;
5841;SDS011;2947;52.276;9.946;2023-05-08T07:45:42;13.90;;;9.40;;
5841;SDS011;2947;52.276;9.946;2023-05-08T07:48:08;12.77;;;9.10;;
5841;SDS011;2947;52.276;9.946;2023-05-08T07:50:34;13.70;;;9.20;;
5841;SDS011;2947;52.276;9.946;2023-05-08T07:53:00;11.80;;;8.82;;
5841;SDS011;2947;52.276;9.946;2023-05-08T07:55:26;10.95;;;8.88;;
5841;SDS011;2947;52.276;9.946;2023-05-08T07:57:51;12.77;;;9.50;;
5841;SDS011;2947;52.276;9.946;2023-05-08T08:00:17;11.85;;;7.88;;
5841;SDS011;2947;52.276;9.946;2023-05-08T08:02:43;14.55;;;8.98;;
5841;SDS011;2947;52.276;9.946;2023-05-08T08:05:09;14.45;;;9.05;;
5841;SDS011;2947;52.276;9.946;2023-05-08T08:07:35;13.32;;;9.18;;
5841;SDS011;2947;52.276;9.946;2023-05-08T08:10:02;13.90;;;9.65;;
5841;SDS011;2947;52.276;9.946;2023-05-08T08:12:31;11.45;;;8.60;;
5841;SDS011;2947;52.276;9.946;2023-05-08T08:14:57;13.00;;;10.02;;
5841;SDS011;2947;52.276;9.946;2023-05-08T08:17:22;17.63;;;9.63;;
5841;SDS011;2947;52.276;9.946;2023-05-08T08:19:48;11.55;;;8.18;;
5841;SDS011;2947;52.276;9.946;2023-05-08T08:22:14;17.63;;;9.10;;
5841;SDS011;2947;52.276;9.946;2023-05-08T08:24:40;14.02;;;8.65;;
5841;SDS011;2947;52.276;9.946;2023-05-08T08:27:06;10.55;;;8.13;;
5841;SDS011;2947;52.276;9.946;2023-05-08T08:29:32;12.65;;;8.90;;
5841;SDS011;2947;52.276;9.946;2023-05-08T08:31:58;12.75;;;8.52;;
5841;SDS011;2947;52.276;9.946;2023-05-08T08:34:24;11.80;;;8.68;;
5841;SDS011;2947;52.276;9.946;2023-05-08T08:36:50;9.70;;;7.40;;
5841;SDS011;2947;52.276;9.946;2023-05-08T08:39:16;10.43;;;7.63;;
5841;SDS011;2947;52.276;9.946;2023-05-08T08:41:41;12.68;;;7.93;;
5841;SDS011;2947;52.276;9.946;2023-05-08T08:44:07;14.32;;;8.80;;
5841;SDS011;2947;52.276;9.946;2023-05-08T08:46:33;10.65;;;8.35;;
5841;SDS011;2947;52.276;9.946;2023-05-08T08:49:03;11.35;;;7.80;;
5841;SDS011;2947;52.276;9.946;2023-05-08T08:51:42;15.93;;;9.60;;
5841;SDS011;2947;52.276;9.946;2023-05-08T08:54:16;11.65;;;8.13;;
5841;SDS011;2947;52.276;9.946;2023-05-08T08:56:48;11.88;;;8.27;;
5841;SDS011;2947;52.276;9.946;2023-05-08T08:59:15;12.85;;;8.68;;
5841;SDS011;2947;52.276;9.946;2023-05-08T09:01:43;13.13;;;8.57;;
5841;SDS011;2947;52.276;9.946;2023-05-08T09:04:12;12.43;;;8.80;;
5841;SDS011;2947;52.276;9.946;2023-05-08T09:06:38;14.23;;;9.43;;
5841;SDS011;2947;52.276;9.946;2023-05-08T09:09:06;12.80;;;8.82;;
5841;SDS011;2947;52.276;9.946;2023-05-08T09:11:32;13.02;;;9.63;;
5841;SDS011;2947;52.276;9.946;2023-05-08T09:14:00;12.27;;;8.80;;
5841;SDS011;2947;52.276;9.946;2023-05-08T09:16:27;15.02;;;8.68;;
5841;SDS011;2947;52.276;9.946;2023-05-08T09:18:53;13.07;;;8.52;;
5841;SDS011;2947;52.276;9.946;2023-05-08T09:21:19;14.32;;;8.63;;
5841;SDS011;2947;52.276;9.946;2023-05-08T09:23:53;16.58;;;8.50;;
5841;SDS011;2947;52.276;9.946;2023-05-08T09:29:18;10.95;;;8.20;;
5841;SDS011;2947;52.276;9.946;2023-05-08T09:31:49;12.40;;;9.18;;
5841;SDS011;2947;52.276;9.946;2023-05-08T09:37:10;11.40;;;8.15;;
5841;SDS011;2947;52.276;9.946;2023-05-08T09:39:37;12.98;;;7.68;;
5841;SDS011;2947;52.276;9.946;2023-05-08T09:42:05;13.90;;;7.63;;
5841;SDS011;2947;52.276;9.946;2023-05-08T09:44:47;9.45;;;7.00;;
5841;SDS011;2947;52.276;9.946;2023-05-08T09:47:18;13.10;;;7.10;;
5841;SDS011;2947;52.276;9.946;2023-05-08T09:52:34;17.75;;;8.00;;
5841;SDS011;2947;52.276;9.946;2023-05-08T09:55:10;7.95;;;6.03;;
5841;SDS011;2947;52.276;9.946;2023-05-08T09:57:36;17.65;;;5.97;;
5841;SDS011;2947;52.276;9.946;2023-05-08T10:00:05;11.45;;;6.70;;
5841;SDS011;2947;52.276;9.946;2023-05-08T10:02:34;8.50;;;6.50;;
5841;SDS011;2947;52.276;9.946;2023-05-08T10:05:21;10.10;;;7.03;;
5841;SDS011;2947;52.276;9.946;2023-05-08T10:07:55;8.95;;;6.22;;
5841;SDS011;2947;52.276;9.946;2023-05-08T10:10:48;9.40;;;7.32;;
5841;SDS011;2947;52.276;9.946;2023-05-08T10:13:17;12.07;;;7.88;;
5841;SDS011;2947;52.276;9.946;2023-05-08T10:15:43;11.80;;;7.78;;
5841;SDS011;2947;52.276;9.946;2023-05-08T10:18:09;15.30;;;7.82;;
5841;SDS011;2947;52.276;9.946;2023-05-08T10:20:39;11.23;;;7.72;;
5841;SDS011;2947;52.276;9.946;2023-05-08T10:23:09;12.40;;;8.48;;
5841;SDS011;2947;52.276;9.946;2023-05-08T10:25:41;14.02;;;8.48;;
5841;SDS011;2947;52.276;9.946;2023-05-08T10:28:15;24.33;;;8.30;;
5841;SDS011;2947;52.276;9.946;2023-05-08T10:30:48;14.70;;;9.05;;
5841;SDS011;2947;52.276;9.946;2023-05-08T10:33:17;13.38;;;9.10;;
5841;SDS011;2947;52.276;9.946;2023-05-08T10:35:45;14.43;;;9.80;;
5841;SDS011;2947;52.276;9.946;2023-05-08T10:38:12;18.35;;;9.13;;
5841;SDS011;2947;52.276;9.946;2023-05-08T10:40:40;16.75;;;9.68;;
5841;SDS011;2947;52.276;9.946;2023-05-08T10:43:06;13.18;;;9.43;;
5841;SDS011;2947;52.276;9.946;2023-05-08T10:45:34;16.02;;;9.43;;
5841;SDS011;2947;52.276;9.946;2023-05-08T10:51:15;13.85;;;9.35;;
5841;SDS011;2947;52.276;9.946;2023-05-08T10:56:39;11.98;;;8.52;;
5841;SDS011;2947;52.276;9.946;2023-05-08T10:59:05;10.57;;;8.57;;
5841;SDS011;2947;52.276;9.946;2023-05-08T11:01:31;13.82;;;9.82;;
5841;SDS011;2947;52.276;9.946;2023-05-08T11:03:56;13.73;;;9.43;;
5841;SDS011;2947;52.276;9.946;2023-05-08T11:14:59;15.50;;;9.45;;
5841;SDS011;2947;52.276;9.946;2023-05-08T11:17:29;13.25;;;8.93;;
5841;SDS011;2947;52.276;9.946;2023-05-08T11:19:58;12.27;;;9.10;;
5841;SDS011;2947;52.276;9.946;2023-05-08T11:22:29;15.38;;;9.88;;
5841;SDS011;2947;52.276;9.946;2023-05-08T11:24:57;15.82;;;9.68;;
5841;SDS011;2947;52.276;9.946;2023-05-08T11:36:11;12.48;;;10.02;;
5841;SDS011;2947;52.276;9.946;2023-05-08T11:40:56;13.00;;;9.48;;
5841;SDS011;2947;52.276;9.946;2023-05-08T11:46:01;13.07;;;9.90;;
5841;SDS011;2947;52.276;9.946;2023-05-08T11:48:31;15.05;;;9.57;;
5841;SDS011;2947;52.276;9.946;2023-05-08T11:50:58;12.30;;;9.40;;
5841;SDS011;2947;52.276;9.946;2023-05-08T11:53:25;10.70;;;8.35;;
5841;SDS011;2947;52.276;9.946;2023-05-08T11:55:52;12.27;;;9.70;;
5841;SDS011;2947;52.276;9.946;2023-05-08T11:58:19;12.75;;;8.45;;
5841;SDS011;2947;52.276;9.946;2023-05-08T12:00:45;16.35;;;8.20;;
5841;SDS011;2947;52.276;9.946;2023-05-08T12:03:13;10.93;;;8.63;;
5841;SDS011;2947;52.276;9.946;2023-05-08T12:05:43;13.30;;;8.95;;
5841;SDS011;2947;52.276;9.946;2023-05-08T12:08:10;9.75;;;7.75;;
5841;SDS011;2947;52.276;9.946;2023-05-08T12:10:38;11.27;;;8.15;;
5841;SDS011;2947;52.276;9.946;2023-05-08T12:13:15;13.80;;;10.52;;
5841;SDS011;2947;52.276;9.946;2023-05-08T12:15:55;11.18;;;8.65;;
5841;SDS011;2947;52.276;9.946;2023-05-08T12:18:23;11.93;;;8.15;;
5841;SDS011;2947;52.276;9.946;2023-05-08T12:20:53;10.82;;;8.30;;
5841;SDS011;2947;52.276;9.946;2023-05-08T12:23:24;11.30;;;8.05;;
5841;SDS011;2947;52.276;9.946;2023-05-08T12:25:57;12.25;;;7.80;;
5841;SDS011;2947;52.276;9.946;2023-05-08T12:28:24;12.85;;;8.73;;
5841;SDS011;2947;52.276;9.946;2023-05-08T12:30:50;11.02;;;8.25;;
5841;SDS011;2947;52.276;9.946;2023-05-08T12:33:16;12.10;;;8.57;;
5841;SDS011;2947;52.276;9.946;2023-05-08T12:35:43;13.18;;;7.93;;
5841;SDS011;2947;52.276;9.946;2023-05-08T12:38:09;14.52;;;7.43;;
5841;SDS011;2947;52.276;9.946;2023-05-08T12:40:42;9.98;;;6.45;;
5841;SDS011;2947;52.276;9.946;2023-05-08T12:43:11;11.40;;;7.25;;
5841;SDS011;2947;52.276;9.946;2023-05-08T12:45:38;9.70;;;7.28;;
5841;SDS011;2947;52.276;9.946;2023-05-08T12:48:06;8.98;;;7.07;;
5841;SDS011;2947;52.276;9.946;2023-05-08T12:50:48;10.25;;;7.30;;
5841;SDS011;2947;52.276;9.946;2023-05-08T12:53:17;10.13;;;6.05;;
5841;SDS011;2947;52.276;9.946;2023-05-08T12:56:00;8.90;;;6.75;;
5841;SDS011;2947;52.276;9.946;2023-05-08T12:58:28;9.10;;;5.93;;
5841;SDS011;2947;52.276;9.946;2023-05-08T13:01:03;7.75;;;5.28;;
5841;SDS011;2947;52.276;9.946;2023-05-08T13:03:33;13.95;;;6.60;;
5841;SDS011;2947;52.276;9.946;2023-05-08T13:06:00;7.97;;;5.63;;
5841;SDS011;2947;52.276;9.946;2023-05-08T13:08:35;7.93;;;5.47;;
5841;SDS011;2947;52.276;9.946;2023-05-08T13:11:05;11.07;;;6.60;;
5841;SDS011;2947;52.276;9.946;2023-05-08T13:13:32;7.88;;;6.07;;
5841;SDS011;2947;52.276;9.946;2023-05-08T13:16:03;8.85;;;6.40;;
5841;SDS011;2947;52.276;9.946;2023-05-08T13:18:31;9.32;;;6.07;;
5841;SDS011;2947;52.276;9.946;2023-05-08T13:21:00;8.93;;;5.88;;
5841;SDS011;2947;52.276;9.946;2023-05-08T13:23:26;8.07;;;5.18;;
5841;SDS011;2947;52.276;9.946;2023-05-08T13:25:51;8.30;;;5.90;;
5841;SDS011;2947;52.276;9.946;2023-05-08T13:28:17;7.40;;;5.68;;
5841;SDS011;2947;52.276;9.946;2023-05-08T13:30:43;9.02;;;6.05;;
5841;SDS011;2947;52.276;9.946;2023-05-08T13:33:09;9.13;;;5.93;;
5841;SDS011;2947;52.276;9.946;2023-05-08T13:35:35;11.73;;;5.82;;
5841;SDS011;2947;52.276;9.946;2023-05-08T13:38:01;8.40;;;5.70;;
5841;SDS011;2947;52.276;9.946;2023-05-08T13:40:27;7.80;;;5.55;;
5841;SDS011;2947;52.276;9.946;2023-05-08T13:42:53;8.23;;;5.88;;
5841;SDS011;2947;52.276;9.946;2023-05-08T13:45:19;13.80;;;5.90;;
5841;SDS011;2947;52.276;9.946;2023-05-08T13:47:45;7.55;;;5.57;;
5841;SDS011;2947;52.276;9.946;2023-05-08T13:50:13;9.55;;;6.82;;
5841;SDS011;2947;52.276;9.946;2023-05-08T13:52:41;10.20;;;6.40;;
5841;SDS011;2947;52.276;9.946;2023-05-08T13:55:07;7.85;;;6.53;;
5841;SDS011;2947;52.276;9.946;2023-05-08T13:57:35;11.75;;;6.10;;
5841;SDS011;2947;52.276;9.946;2023-05-08T14:00:02;11.35;;;6.75;;
5841;SDS011;2947;52.276;9.946;2023-05-08T14:02:29;7.15;;;5.43;;
5841;SDS011;2947;52.276;9.946;2023-05-08T14:04:55;16.25;;;6.10;;
5841;SDS011;2947;52.276;9.946;2023-05-08T14:07:21;7.43;;;6.07;;
5841;SDS011;2947;52.276;9.946;2023-05-08T14:09:47;10.57;;;7.30;;
5841;SDS011;2947;52.276;9.946;2023-05-08T14:12:12;9.02;;;6.30;;
5841;SDS011;2947;52.276;9.946;2023-05-08T14:14:38;11.60;;;5.68;;
5841;SDS011;2947;52.276;9.946;2023-05-08T14:17:04;8.90;;;5.60;;
5841;SDS011;2947;52.276;9.946;2023-05-08T14:19:30;8.07;;;6.18;;
5841;SDS011;2947;52.276;9.946;2023-05-08T14:21:56;7.65;;;5.55;;
5841;SDS011;2947;52.276;9.946;2023-05-08T14:24:22;8.95;;;6.05;;
5841;SDS011;2947;52.276;9.946;2023-05-08T14:26:48;13.70;;;6.43;;
5841;SDS011;2947;52.276;9.946;2023-05-08T14:29:14;7.90;;;6.35;;
5841;SDS011;2947;52.276;9.946;2023-05-08T14:31:40;7.43;;;5.22;;
5841;SDS011;2947;52.276;9.946;2023-05-08T14:34:06;9.75;;;6.00;;
5841;SDS011;2947;52.276;9.946;2023-05-08T14:36:31;10.77;;;6.75;;
5841;SDS011;2947;52.276;9.946;2023-05-08T14:38:57;9.32;;;5.72;;
5841;SDS011;2947;52.276;9.946;2023-05-08T14:41:26;8.23;;;5.88;;
5841;SDS011;2947;52.276;9.946;2023-05-08T14:43:55;9.07;;;5.78;;
5841;SDS011;2947;52.276;9.946;2023-05-08T14:46:22;6.95;;;5.07;;
5841;SDS011;2947;52.276;9.946;2023-05-08T14:48:48;8.35;;;5.22;;
5841;SDS011;2947;52.276;9.946;2023-05-08T14:51:15;9.30;;;5.30;;
5841;SDS011;2947;52.276;9.946;2023-05-08T14:53:43;13.77;;;5.28;;
5841;SDS011;2947;52.276;9.946;2023-05-08T14:56:09;8.40;;;6.35;;
5841;SDS011;2947;52.276;9.946;2023-05-08T14:58:37;9.52;;;5.70;;
5841;SDS011;2947;52.276;9.946;2023-05-08T15:01:03;10.30;;;5.45;;
5841;SDS011;2947;52.276;9.946;2023-05-08T15:03:29;7.50;;;5.00;;
5841;SDS011;2947;52.276;9.946;2023-05-08T15:05:55;10.23;;;5.35;;
5841;SDS011;2947;52.276;9.946;2023-05-08T15:08:20;9.75;;;4.90;;
5841;SDS011;2947;52.276;9.946;2023-05-08T15:10:46;5.70;;;4.57;;
5841;SDS011;2947;52.276;9.946;2023-05-08T15:13:12;7.20;;;4.97;;
5841;SDS011;2947;52.276;9.946;2023-05-08T15:15:37;7.97;;;4.28;;
5841;SDS011;2947;52.276;9.946;2023-05-08T15:18:03;6.30;;;4.13;;
5841;SDS011;2947;52.276;9.946;2023-05-08T15:20:29;6.80;;;3.92;;
5841;SDS011;2947;52.276;9.946;2023-05-08T15:22:54;6.13;;;4.65;;
5841;SDS011;2947;52.276;9.946;2023-05-08T15:25:20;6.82;;;4.38;;
5841;SDS011;2947;52.276;9.946;2023-05-08T15:27:46;9.02;;;4.07;;
5841;SDS011;2947;52.276;9.946;2023-05-08T15:30:16;7.70;;;4.60;;
5841;SDS011;2947;52.276;9.946;2023-05-08T15:32:43;6.47;;;4.40;;
5841;SDS011;2947;52.276;9.946;2023-05-08T15:35:09;6.20;;;4.68;;
5841;SDS011;2947;52.276;9.946;2023-05-08T15:37:35;5.75;;;4.50;;
5841;SDS011;2947;52.276;9.946;2023-05-08T15:40:02;5.45;;;4.30;;
5841;SDS011;2947;52.276;9.946;2023-05-08T15:42:28;5.38;;;3.72;;
5841;SDS011;2947;52.276;9.946;2023-05-08T15:44:54;12.15;;;5.00;;
5841;SDS011;2947;52.276;9.946;2023-05-08T15:47:21;6.18;;;3.88;;
5841;SDS011;2947;52.276;9.946;2023-05-08T15:49:48;8.50;;;4.53;;
5841;SDS011;2947;52.276;9.946;2023-05-08T15:52:14;9.15;;;4.15;;
5841;SDS011;2947;52.276;9.946;2023-05-08T15:54:43;6.20;;;3.60;;
5841;SDS011;2947;52.276;9.946;2023-05-08T15:57:09;5.03;;;3.70;;
5841;SDS011;2947;52.276;9.946;2023-05-08T15:59:35;9.10;;;3.75;;
5841;SDS011;2947;52.276;9.946;2023-05-08T16:02:01;6.10;;;3.78;;
5841;SDS011;2947;52.276;9.946;2023-05-08T16:04:28;5.15;;;3.00;;
5841;SDS011;2947;52.276;9.946;2023-05-08T16:06:54;5.43;;;3.55;;
5841;SDS011;2947;52.276;9.946;2023-05-08T16:09:20;4.25;;;2.80;;
5841;SDS011;2947;52.276;9.946;2023-05-08T16:11:47;5.30;;;2.97;;